sensor_id;sensor_type;location;lat;lon;timestamp;P1;durP1;ratioP1;P2;durP2;ratioP2
44973;SDS011;60981;50.720;11.342;2022-11-23T00:00:41;10.32;;;5.70;;
44973;SDS011;60981;50.720;11.342;2022-11-23T00:01:43;10.38;;;5.15;;
44973;SDS011;60981;50.720;11.342;2022-11-23T00:02:45;10.77;;;5.15;;
44973;SDS011;60981;50.720;11.342;2022-11-23T00:03:48;9.32;;;4.60;;
44973;SDS011;60981;50.720;11.342;2022-11-23T00:04:51;10.00;;;4.90;;
44973;SDS011;60981;50.720;11.342;2022-11-23T00:05:52;9.13;;;4.55;;
44973;SDS011;60981;50.720;11.342;2022-11-23T00:06:54;8.35;;;4.68;;
44973;SDS011;60981;50.720;11.342;2022-11-23T00:07:55;10.63;;;5.22;;
44973;SDS011;60981;50.720;11.342;2022-11-23T00:08:57;10.57;;;4.85;;
44973;SDS011;60981;50.720;11.342;2022-11-23T00:09:59;10.70;;;4.90;;
44973;SDS011;60981;50.720;11.342;2022-11-23T00:11:01;9.93;;;4.60;;
44973;SDS011;60981;50.720;11.342;2022-11-23T00:12:03;10.40;;;4.72;;
44973;SDS011;60981;50.720;11.342;2022-11-23T00:13:05;8.73;;;4.57;;
44973;SDS011;60981;50.720;11.342;2022-11-23T00:14:07;7.72;;;4.13;;
44973;SDS011;60981;50.720;11.342;2022-11-23T00:15:08;8.05;;;4.15;;
44973;SDS011;60981;50.720;11.342;2022-11-23T00:16:22;6.80;;;4.10;;
44973;SDS011;60981;50.720;11.342;2022-11-23T00:17:25;8.82;;;3.97;;
44973;SDS011;60981;50.720;11.342;2022-11-23T00:18:27;9.02;;;3.90;;
44973;SDS011;60981;50.720;11.342;2022-11-23T00:19:29;7.40;;;3.65;;
44973;SDS011;60981;50.720;11.342;2022-11-23T00:20:31;7.13;;;4.00;;
44973;SDS011;60981;50.720;11.342;2022-11-23T00:21:33;7.97;;;3.45;;
44973;SDS011;60981;50.720;11.342;2022-11-23T00:22:35;8.48;;;3.70;;
44973;SDS011;60981;50.720;11.342;2022-11-23T00:23:39;8.38;;;3.90;;
44973;SDS011;60981;50.720;11.342;2022-11-23T00:24:40;7.68;;;3.40;;
44973;SDS011;60981;50.720;11.342;2022-11-23T00:25:45;7.72;;;3.65;;
44973;SDS011;60981;50.720;11.342;2022-11-23T00:26:47;9.43;;;3.88;;
44973;SDS011;60981;50.720;11.342;2022-11-23T00:27:49;7.05;;;3.60;;
44973;SDS011;60981;50.720;11.342;2022-11-23T00:28:50;7.07;;;3.40;;
44973;SDS011;60981;50.720;11.342;2022-11-23T00:29:52;8.35;;;3.55;;
44973;SDS011;60981;50.720;11.342;2022-11-23T00:30:54;7.80;;;3.42;;
44973;SDS011;60981;50.720;11.342;2022-11-23T00:31:55;7.85;;;3.70;;
44973;SDS011;60981;50.720;11.342;2022-11-23T00:32:57;9.07;;;3.53;;
44973;SDS011;60981;50.720;11.342;2022-11-23T00:33:59;8.35;;;3.60;;
44973;SDS011;60981;50.720;11.342;2022-11-23T00:35:01;7.65;;;3.38;;
44973;SDS011;60981;50.720;11.342;2022-11-23T00:36:04;7.53;;;3.50;;
44973;SDS011;60981;50.720;11.342;2022-11-23T00:37:08;7.03;;;3.58;;
44973;SDS011;60981;50.720;11.342;2022-11-23T00:38:10;7.95;;;3.47;;
44973;SDS011;60981;50.720;11.342;2022-11-23T00:39:11;8.15;;;3.63;;
44973;SDS011;60981;50.720;11.342;2022-11-23T00:40:13;8.32;;;3.55;;
44973;SDS011;60981;50.720;11.342;2022-11-23T00:41:20;8.52;;;3.50;;
44973;SDS011;60981;50.720;11.342;2022-11-23T00:42:23;8.65;;;3.72;;
44973;SDS011;60981;50.720;11.342;2022-11-23T00:43:25;7.28;;;3.50;;
44973;SDS011;60981;50.720;11.342;2022-11-23T00:44:27;7.45;;;3.30;;
44973;SDS011;60981;50.720;11.342;2022-11-23T00:45:29;7.80;;;3.65;;
44973;SDS011;60981;50.720;11.342;2022-11-23T00:46:30;6.07;;;3.15;;
44973;SDS011;60981;50.720;11.342;2022-11-23T00:47:32;6.68;;;3.30;;
44973;SDS011;60981;50.720;11.342;2022-11-23T00:48:34;7.22;;;4.00;;
44973;SDS011;60981;50.720;11.342;2022-11-23T00:49:36;7.28;;;3.30;;
44973;SDS011;60981;50.720;11.342;2022-11-23T00:50:37;8.32;;;3.50;;
44973;SDS011;60981;50.720;11.342;2022-11-23T00:51:39;6.65;;;3.60;;
44973;SDS011;60981;50.720;11.342;2022-11-23T00:52:41;8.30;;;3.60;;
44973;SDS011;60981;50.720;11.342;2022-11-23T00:53:42;7.13;;;3.03;;
44973;SDS011;60981;50.720;11.342;2022-11-23T00:54:44;7.13;;;3.30;;
44973;SDS011;60981;50.720;11.342;2022-11-23T00:55:50;6.60;;;3.30;;
44973;SDS011;60981;50.720;11.342;2022-11-23T00:56:56;7.97;;;4.10;;
44973;SDS011;60981;50.720;11.342;2022-11-23T00:57:57;8.07;;;3.70;;
44973;SDS011;60981;50.720;11.342;2022-11-23T00:58:59;7.38;;;3.42;;
44973;SDS011;60981;50.720;11.342;2022-11-23T01:00:04;8.10;;;3.78;;
44973;SDS011;60981;50.720;11.342;2022-11-23T01:01:11;6.13;;;3.20;;
44973;SDS011;60981;50.720;11.342;2022-11-23T01:02:13;8.10;;;3.53;;
44973;SDS011;60981;50.720;11.342;2022-11-23T01:03:15;7.88;;;3.60;;
44973;SDS011;60981;50.720;11.342;2022-11-23T01:04:17;6.13;;;3.28;;
44973;SDS011;60981;50.720;11.342;2022-11-23T01:05:19;6.68;;;3.38;;
44973;SDS011;60981;50.720;11.342;2022-11-23T01:06:22;6.82;;;3.53;;
44973;SDS011;60981;50.720;11.342;2022-11-23T01:07:28;7.72;;;3.42;;
44973;SDS011;60981;50.720;11.342;2022-11-23T01:08:33;8.57;;;3.78;;
44973;SDS011;60981;50.720;11.342;2022-11-23T01:09:35;7.60;;;3.58;;
44973;SDS011;60981;50.720;11.342;2022-11-23T01:10:36;10.23;;;3.65;;
44973;SDS011;60981;50.720;11.342;2022-11-23T01:11:38;7.90;;;3.58;;
44973;SDS011;60981;50.720;11.342;2022-11-23T01:12:39;7.50;;;3.03;;
44973;SDS011;60981;50.720;11.342;2022-11-23T01:13:41;7.38;;;3.30;;
44973;SDS011;60981;50.720;11.342;2022-11-23T01:14:43;7.07;;;3.50;;
44973;SDS011;60981;50.720;11.342;2022-11-23T01:15:48;5.97;;;3.10;;
44973;SDS011;60981;50.720;11.342;2022-11-23T01:16:51;6.77;;;3.40;;
44973;SDS011;60981;50.720;11.342;2022-11-23T01:17:52;8.05;;;3.70;;
44973;SDS011;60981;50.720;11.342;2022-11-23T01:18:54;7.75;;;3.63;;
44973;SDS011;60981;50.720;11.342;2022-11-23T01:19:57;5.80;;;3.30;;
44973;SDS011;60981;50.720;11.342;2022-11-23T01:21:00;6.88;;;3.40;;
44973;SDS011;60981;50.720;11.342;2022-11-23T01:22:02;7.45;;;3.30;;
44973;SDS011;60981;50.720;11.342;2022-11-23T01:23:04;6.90;;;3.25;;
44973;SDS011;60981;50.720;11.342;2022-11-23T01:24:06;6.43;;;3.13;;
44973;SDS011;60981;50.720;11.342;2022-11-23T01:25:10;7.30;;;3.60;;
44973;SDS011;60981;50.720;11.342;2022-11-23T01:26:12;7.45;;;3.85;;
44973;SDS011;60981;50.720;11.342;2022-11-23T01:27:13;7.18;;;3.53;;
44973;SDS011;60981;50.720;11.342;2022-11-23T01:28:36;6.85;;;3.20;;
44973;SDS011;60981;50.720;11.342;2022-11-23T01:29:39;7.63;;;3.22;;
44973;SDS011;60981;50.720;11.342;2022-11-23T01:30:42;7.32;;;3.40;;
44973;SDS011;60981;50.720;11.342;2022-11-23T01:31:43;5.75;;;3.00;;
44973;SDS011;60981;50.720;11.342;2022-11-23T01:32:47;6.88;;;3.22;;
44973;SDS011;60981;50.720;11.342;2022-11-23T01:33:55;8.23;;;3.45;;
44973;SDS011;60981;50.720;11.342;2022-11-23T01:34:59;7.28;;;3.30;;
44973;SDS011;60981;50.720;11.342;2022-11-23T01:36:07;8.30;;;3.45;;
44973;SDS011;60981;50.720;11.342;2022-11-23T01:37:19;6.20;;;3.30;;
44973;SDS011;60981;50.720;11.342;2022-11-23T01:38:21;6.90;;;3.15;;
44973;SDS011;60981;50.720;11.342;2022-11-23T01:39:23;7.73;;;3.50;;
44973;SDS011;60981;50.720;11.342;2022-11-23T01:40:25;9.43;;;3.72;;
44973;SDS011;60981;50.720;11.342;2022-11-23T01:41:34;6.53;;;3.38;;
44973;SDS011;60981;50.720;11.342;2022-11-23T01:44:21;7.68;;;3.33;;
44973;SDS011;60981;50.720;11.342;2022-11-23T01:45:39;8.27;;;3.50;;
44973;SDS011;60981;50.720;11.342;2022-11-23T01:46:43;7.15;;;2.83;;
44973;SDS011;60981;50.720;11.342;2022-11-23T01:47:44;6.50;;;3.30;;
44973;SDS011;60981;50.720;11.342;2022-11-23T01:48:48;7.50;;;3.17;;
44973;SDS011;60981;50.720;11.342;2022-11-23T01:49:54;6.95;;;3.10;;
44973;SDS011;60981;50.720;11.342;2022-11-23T01:50:56;6.75;;;3.03;;
44973;SDS011;60981;50.720;11.342;2022-11-23T01:52:02;8.02;;;3.35;;
44973;SDS011;60981;50.720;11.342;2022-11-23T01:53:26;5.90;;;3.00;;
44973;SDS011;60981;50.720;11.342;2022-11-23T01:54:31;7.20;;;3.00;;
44973;SDS011;60981;50.720;11.342;2022-11-23T01:55:36;7.32;;;3.10;;
44973;SDS011;60981;50.720;11.342;2022-11-23T01:56:42;7.70;;;2.97;;
44973;SDS011;60981;50.720;11.342;2022-11-23T01:57:46;8.52;;;3.58;;
44973;SDS011;60981;50.720;11.342;2022-11-23T01:58:49;8.95;;;2.90;;
44973;SDS011;60981;50.720;11.342;2022-11-23T01:59:54;7.95;;;3.15;;
44973;SDS011;60981;50.720;11.342;2022-11-23T02:00:57;7.75;;;3.13;;
44973;SDS011;60981;50.720;11.342;2022-11-23T02:02:00;6.43;;;2.80;;
44973;SDS011;60981;50.720;11.342;2022-11-23T02:03:02;6.60;;;3.22;;
44973;SDS011;60981;50.720;11.342;2022-11-23T02:04:06;6.43;;;2.97;;
44973;SDS011;60981;50.720;11.342;2022-11-23T02:05:17;8.98;;;3.50;;
44973;SDS011;60981;50.720;11.342;2022-11-23T02:06:23;6.22;;;3.00;;
44973;SDS011;60981;50.720;11.342;2022-11-23T02:07:25;6.03;;;2.60;;
44973;SDS011;60981;50.720;11.342;2022-11-23T02:08:29;6.65;;;3.10;;
44973;SDS011;60981;50.720;11.342;2022-11-23T02:09:32;8.82;;;3.40;;
44973;SDS011;60981;50.720;11.342;2022-11-23T02:10:36;5.95;;;2.67;;
44973;SDS011;60981;50.720;11.342;2022-11-23T02:11:38;6.50;;;2.97;;
44973;SDS011;60981;50.720;11.342;2022-11-23T02:12:39;5.68;;;2.90;;
44973;SDS011;60981;50.720;11.342;2022-11-23T02:13:43;7.30;;;2.83;;
44973;SDS011;60981;50.720;11.342;2022-11-23T02:14:47;8.10;;;3.30;;
44973;SDS011;60981;50.720;11.342;2022-11-23T02:15:49;6.75;;;2.83;;
44973;SDS011;60981;50.720;11.342;2022-11-23T02:16:52;6.05;;;3.50;;
44973;SDS011;60981;50.720;11.342;2022-11-23T02:17:54;6.50;;;3.20;;
44973;SDS011;60981;50.720;11.342;2022-11-23T02:18:57;7.25;;;3.08;;
44973;SDS011;60981;50.720;11.342;2022-11-23T02:21:11;7.07;;;3.30;;
44973;SDS011;60981;50.720;11.342;2022-11-23T02:22:16;7.03;;;3.53;;
44973;SDS011;60981;50.720;11.342;2022-11-23T02:24:52;13.57;;;6.75;;
44973;SDS011;60981;50.720;11.342;2022-11-23T02:25:57;25.87;;;13.07;;
44973;SDS011;60981;50.720;11.342;2022-11-23T02:27:02;19.70;;;9.93;;
44973;SDS011;60981;50.720;11.342;2022-11-23T02:28:07;9.90;;;4.22;;
44973;SDS011;60981;50.720;11.342;2022-11-23T02:29:10;7.30;;;3.10;;
44973;SDS011;60981;50.720;11.342;2022-11-23T02:30:16;10.27;;;3.83;;
44973;SDS011;60981;50.720;11.342;2022-11-23T02:31:18;6.85;;;3.15;;
44973;SDS011;60981;50.720;11.342;2022-11-23T02:32:21;7.45;;;3.72;;
44973;SDS011;60981;50.720;11.342;2022-11-23T02:33:25;7.57;;;3.40;;
44973;SDS011;60981;50.720;11.342;2022-11-23T02:34:26;6.25;;;3.17;;
44973;SDS011;60981;50.720;11.342;2022-11-23T02:35:28;6.22;;;3.25;;
44973;SDS011;60981;50.720;11.342;2022-11-23T02:36:34;7.88;;;3.30;;
44973;SDS011;60981;50.720;11.342;2022-11-23T02:37:43;7.40;;;3.13;;
44973;SDS011;60981;50.720;11.342;2022-11-23T02:38:45;7.05;;;3.40;;
44973;SDS011;60981;50.720;11.342;2022-11-23T02:39:50;7.57;;;3.55;;
44973;SDS011;60981;50.720;11.342;2022-11-23T02:40:53;7.25;;;3.47;;
44973;SDS011;60981;50.720;11.342;2022-11-23T02:41:55;7.85;;;3.63;;
44973;SDS011;60981;50.720;11.342;2022-11-23T02:42:58;9.63;;;3.78;;
44973;SDS011;60981;50.720;11.342;2022-11-23T02:44:00;7.28;;;3.30;;
44973;SDS011;60981;50.720;11.342;2022-11-23T02:45:08;8.13;;;3.55;;
44973;SDS011;60981;50.720;11.342;2022-11-23T02:46:19;7.47;;;3.38;;
44973;SDS011;60981;50.720;11.342;2022-11-23T02:47:21;6.25;;;3.05;;
44973;SDS011;60981;50.720;11.342;2022-11-23T02:48:23;7.10;;;3.25;;
44973;SDS011;60981;50.720;11.342;2022-11-23T02:49:25;8.15;;;3.30;;
44973;SDS011;60981;50.720;11.342;2022-11-23T02:50:26;8.18;;;3.40;;
44973;SDS011;60981;50.720;11.342;2022-11-23T02:51:28;8.65;;;3.80;;
44973;SDS011;60981;50.720;11.342;2022-11-23T02:52:30;10.73;;;3.60;;
44973;SDS011;60981;50.720;11.342;2022-11-23T02:53:31;6.20;;;3.15;;
44973;SDS011;60981;50.720;11.342;2022-11-23T02:54:34;7.55;;;3.50;;
44973;SDS011;60981;50.720;11.342;2022-11-23T02:55:35;6.65;;;3.13;;
44973;SDS011;60981;50.720;11.342;2022-11-23T02:56:37;7.35;;;3.65;;
44973;SDS011;60981;50.720;11.342;2022-11-23T02:57:40;8.32;;;3.40;;
44973;SDS011;60981;50.720;11.342;2022-11-23T02:58:41;8.27;;;3.70;;
44973;SDS011;60981;50.720;11.342;2022-11-23T02:59:43;7.10;;;3.47;;
44973;SDS011;60981;50.720;11.342;2022-11-23T03:00:44;7.25;;;3.20;;
44973;SDS011;60981;50.720;11.342;2022-11-23T03:01:46;8.15;;;3.40;;
44973;SDS011;60981;50.720;11.342;2022-11-23T03:02:48;7.50;;;3.08;;
44973;SDS011;60981;50.720;11.342;2022-11-23T03:03:50;6.07;;;3.22;;
44973;SDS011;60981;50.720;11.342;2022-11-23T03:04:52;7.05;;;2.95;;
44973;SDS011;60981;50.720;11.342;2022-11-23T03:05:54;6.72;;;3.08;;
44973;SDS011;60981;50.720;11.342;2022-11-23T03:06:56;6.70;;;2.80;;
44973;SDS011;60981;50.720;11.342;2022-11-23T03:07:58;5.40;;;2.80;;
44973;SDS011;60981;50.720;11.342;2022-11-23T03:09:00;7.93;;;3.00;;
44973;SDS011;60981;50.720;11.342;2022-11-23T03:10:02;7.93;;;3.25;;
44973;SDS011;60981;50.720;11.342;2022-11-23T03:11:04;6.27;;;2.80;;
44973;SDS011;60981;50.720;11.342;2022-11-23T03:12:06;6.22;;;3.22;;
44973;SDS011;60981;50.720;11.342;2022-11-23T03:13:08;7.13;;;3.10;;
44973;SDS011;60981;50.720;11.342;2022-11-23T03:14:09;8.27;;;3.30;;
44973;SDS011;60981;50.720;11.342;2022-11-23T03:15:11;6.90;;;2.85;;
44973;SDS011;60981;50.720;11.342;2022-11-23T03:16:13;6.68;;;3.05;;
44973;SDS011;60981;50.720;11.342;2022-11-23T03:17:15;5.63;;;3.05;;
44973;SDS011;60981;50.720;11.342;2022-11-23T03:18:16;7.13;;;3.00;;
44973;SDS011;60981;50.720;11.342;2022-11-23T03:19:18;5.20;;;2.78;;
44973;SDS011;60981;50.720;11.342;2022-11-23T03:20:20;6.93;;;2.90;;
44973;SDS011;60981;50.720;11.342;2022-11-23T03:21:21;6.27;;;2.87;;
44973;SDS011;60981;50.720;11.342;2022-11-23T03:22:23;6.85;;;2.85;;
44973;SDS011;60981;50.720;11.342;2022-11-23T03:23:25;8.70;;;3.08;;
44973;SDS011;60981;50.720;11.342;2022-11-23T03:24:27;6.90;;;3.17;;
44973;SDS011;60981;50.720;11.342;2022-11-23T03:25:29;8.50;;;2.85;;
44973;SDS011;60981;50.720;11.342;2022-11-23T03:26:30;7.97;;;2.80;;
44973;SDS011;60981;50.720;11.342;2022-11-23T03:27:32;7.50;;;3.20;;
44973;SDS011;60981;50.720;11.342;2022-11-23T03:28:35;7.65;;;3.20;;
44973;SDS011;60981;50.720;11.342;2022-11-23T03:29:36;7.20;;;3.30;;
44973;SDS011;60981;50.720;11.342;2022-11-23T03:30:38;7.88;;;3.50;;
44973;SDS011;60981;50.720;11.342;2022-11-23T03:31:39;8.20;;;3.42;;
44973;SDS011;60981;50.720;11.342;2022-11-23T03:32:42;7.07;;;3.00;;
44973;SDS011;60981;50.720;11.342;2022-11-23T03:33:44;6.40;;;2.92;;
44973;SDS011;60981;50.720;11.342;2022-11-23T03:34:45;7.57;;;3.42;;
44973;SDS011;60981;50.720;11.342;2022-11-23T03:35:47;9.23;;;3.47;;
44973;SDS011;60981;50.720;11.342;2022-11-23T03:36:49;7.57;;;3.03;;
44973;SDS011;60981;50.720;11.342;2022-11-23T03:37:51;8.45;;;3.97;;
44973;SDS011;60981;50.720;11.342;2022-11-23T03:38:52;8.90;;;3.30;;
44973;SDS011;60981;50.720;11.342;2022-11-23T03:39:54;8.23;;;3.60;;
44973;SDS011;60981;50.720;11.342;2022-11-23T03:40:55;7.25;;;3.50;;
44973;SDS011;60981;50.720;11.342;2022-11-23T03:41:57;6.95;;;3.35;;
44973;SDS011;60981;50.720;11.342;2022-11-23T03:42:59;8.10;;;3.42;;
44973;SDS011;60981;50.720;11.342;2022-11-23T03:44:01;8.65;;;3.50;;
44973;SDS011;60981;50.720;11.342;2022-11-23T03:45:03;7.75;;;3.55;;
44973;SDS011;60981;50.720;11.342;2022-11-23T03:46:06;8.48;;;3.40;;
44973;SDS011;60981;50.720;11.342;2022-11-23T03:47:07;6.73;;;3.50;;
44973;SDS011;60981;50.720;11.342;2022-11-23T03:48:09;7.82;;;3.47;;
44973;SDS011;60981;50.720;11.342;2022-11-23T03:49:11;8.18;;;3.55;;
44973;SDS011;60981;50.720;11.342;2022-11-23T03:50:13;8.63;;;3.60;;
44973;SDS011;60981;50.720;11.342;2022-11-23T03:51:15;6.80;;;3.10;;
44973;SDS011;60981;50.720;11.342;2022-11-23T03:52:16;8.25;;;3.38;;
44973;SDS011;60981;50.720;11.342;2022-11-23T03:53:20;7.30;;;3.40;;
44973;SDS011;60981;50.720;11.342;2022-11-23T03:54:22;5.97;;;3.10;;
44973;SDS011;60981;50.720;11.342;2022-11-23T03:55:25;8.90;;;2.95;;
44973;SDS011;60981;50.720;11.342;2022-11-23T03:56:27;7.18;;;3.13;;
44973;SDS011;60981;50.720;11.342;2022-11-23T03:57:30;10.20;;;3.10;;
44973;SDS011;60981;50.720;11.342;2022-11-23T03:58:32;5.85;;;2.90;;
44973;SDS011;60981;50.720;11.342;2022-11-23T03:59:34;7.80;;;3.10;;
44973;SDS011;60981;50.720;11.342;2022-11-23T04:00:36;7.65;;;3.20;;
44973;SDS011;60981;50.720;11.342;2022-11-23T04:01:38;8.65;;;3.58;;
44973;SDS011;60981;50.720;11.342;2022-11-23T04:02:40;8.02;;;3.80;;
44973;SDS011;60981;50.720;11.342;2022-11-23T04:03:42;7.65;;;3.50;;
44973;SDS011;60981;50.720;11.342;2022-11-23T04:04:44;5.65;;;2.92;;
44973;SDS011;60981;50.720;11.342;2022-11-23T04:05:46;6.00;;;3.10;;
44973;SDS011;60981;50.720;11.342;2022-11-23T04:06:48;7.88;;;3.30;;
44973;SDS011;60981;50.720;11.342;2022-11-23T04:07:49;8.40;;;2.95;;
44973;SDS011;60981;50.720;11.342;2022-11-23T04:08:51;8.75;;;2.90;;
44973;SDS011;60981;50.720;11.342;2022-11-23T04:09:59;7.88;;;2.88;;
44973;SDS011;60981;50.720;11.342;2022-11-23T04:11:00;6.28;;;2.80;;
44973;SDS011;60981;50.720;11.342;2022-11-23T04:12:02;7.95;;;3.17;;
44973;SDS011;60981;50.720;11.342;2022-11-23T04:13:04;6.45;;;2.70;;
44973;SDS011;60981;50.720;11.342;2022-11-23T04:14:06;7.88;;;3.40;;
44973;SDS011;60981;50.720;11.342;2022-11-23T04:15:08;6.72;;;3.05;;
44973;SDS011;60981;50.720;11.342;2022-11-23T04:16:11;8.45;;;3.08;;
44973;SDS011;60981;50.720;11.342;2022-11-23T04:17:12;6.78;;;2.90;;
44973;SDS011;60981;50.720;11.342;2022-11-23T04:18:15;6.07;;;3.10;;
44973;SDS011;60981;50.720;11.342;2022-11-23T04:19:17;7.35;;;3.00;;
44973;SDS011;60981;50.720;11.342;2022-11-23T04:20:18;8.05;;;3.33;;
44973;SDS011;60981;50.720;11.342;2022-11-23T04:21:20;9.65;;;4.53;;
44973;SDS011;60981;50.720;11.342;2022-11-23T04:22:22;7.68;;;4.43;;
44973;SDS011;60981;50.720;11.342;2022-11-23T04:23:23;8.13;;;4.60;;
44973;SDS011;60981;50.720;11.342;2022-11-23T04:24:25;6.45;;;4.05;;
44973;SDS011;60981;50.720;11.342;2022-11-23T04:25:27;7.13;;;3.45;;
44973;SDS011;60981;50.720;11.342;2022-11-23T04:26:29;7.88;;;3.60;;
44973;SDS011;60981;50.720;11.342;2022-11-23T04:27:31;8.65;;;3.15;;
44973;SDS011;60981;50.720;11.342;2022-11-23T04:28:33;6.38;;;3.10;;
44973;SDS011;60981;50.720;11.342;2022-11-23T04:29:34;7.43;;;2.72;;
44973;SDS011;60981;50.720;11.342;2022-11-23T04:30:36;7.10;;;2.85;;
44973;SDS011;60981;50.720;11.342;2022-11-23T04:31:37;7.43;;;3.05;;
44973;SDS011;60981;50.720;11.342;2022-11-23T04:32:39;7.57;;;3.35;;
44973;SDS011;60981;50.720;11.342;2022-11-23T04:33:41;7.03;;;3.13;;
44973;SDS011;60981;50.720;11.342;2022-11-23T04:34:42;7.03;;;3.22;;
44973;SDS011;60981;50.720;11.342;2022-11-23T04:35:44;5.93;;;2.53;;
44973;SDS011;60981;50.720;11.342;2022-11-23T04:36:45;9.75;;;3.30;;
44973;SDS011;60981;50.720;11.342;2022-11-23T04:37:48;6.88;;;2.90;;
44973;SDS011;60981;50.720;11.342;2022-11-23T04:38:50;6.40;;;3.10;;
44973;SDS011;60981;50.720;11.342;2022-11-23T04:39:52;9.05;;;3.65;;
44973;SDS011;60981;50.720;11.342;2022-11-23T04:40:53;6.78;;;2.90;;
44973;SDS011;60981;50.720;11.342;2022-11-23T04:41:55;9.50;;;3.40;;
44973;SDS011;60981;50.720;11.342;2022-11-23T04:42:57;6.45;;;2.47;;
44973;SDS011;60981;50.720;11.342;2022-11-23T04:44:02;7.50;;;2.67;;
44973;SDS011;60981;50.720;11.342;2022-11-23T04:45:04;6.32;;;2.58;;
44973;SDS011;60981;50.720;11.342;2022-11-23T04:46:06;7.97;;;2.97;;
44973;SDS011;60981;50.720;11.342;2022-11-23T04:47:11;8.50;;;2.63;;
44973;SDS011;60981;50.720;11.342;2022-11-23T04:48:13;5.63;;;2.55;;
44973;SDS011;60981;50.720;11.342;2022-11-23T04:49:15;7.00;;;3.00;;
44973;SDS011;60981;50.720;11.342;2022-11-23T04:50:17;8.40;;;3.20;;
44973;SDS011;60981;50.720;11.342;2022-11-23T04:51:21;8.25;;;2.90;;
44973;SDS011;60981;50.720;11.342;2022-11-23T04:52:23;8.10;;;3.22;;
44973;SDS011;60981;50.720;11.342;2022-11-23T04:53:26;7.68;;;3.17;;
44973;SDS011;60981;50.720;11.342;2022-11-23T04:54:27;8.55;;;2.78;;
44973;SDS011;60981;50.720;11.342;2022-11-23T04:55:29;7.43;;;3.60;;
44973;SDS011;60981;50.720;11.342;2022-11-23T04:56:31;6.60;;;2.92;;
44973;SDS011;60981;50.720;11.342;2022-11-23T04:57:33;7.28;;;3.05;;
44973;SDS011;60981;50.720;11.342;2022-11-23T04:58:34;7.50;;;2.90;;
44973;SDS011;60981;50.720;11.342;2022-11-23T04:59:39;7.72;;;3.13;;
44973;SDS011;60981;50.720;11.342;2022-11-23T05:00:42;10.32;;;3.55;;
44973;SDS011;60981;50.720;11.342;2022-11-23T05:01:44;7.28;;;2.97;;
44973;SDS011;60981;50.720;11.342;2022-11-23T05:02:46;7.45;;;2.72;;
44973;SDS011;60981;50.720;11.342;2022-11-23T05:03:47;8.52;;;2.90;;
44973;SDS011;60981;50.720;11.342;2022-11-23T05:04:49;9.13;;;2.88;;
44973;SDS011;60981;50.720;11.342;2022-11-23T05:05:50;6.78;;;2.70;;
44973;SDS011;60981;50.720;11.342;2022-11-23T05:06:52;8.02;;;2.88;;
44973;SDS011;60981;50.720;11.342;2022-11-23T05:07:55;8.13;;;3.25;;
44973;SDS011;60981;50.720;11.342;2022-11-23T05:08:57;8.30;;;3.03;;
44973;SDS011;60981;50.720;11.342;2022-11-23T05:09:58;7.53;;;2.95;;
44973;SDS011;60981;50.720;11.342;2022-11-23T05:11:00;7.93;;;3.50;;
44973;SDS011;60981;50.720;11.342;2022-11-23T05:12:01;7.72;;;3.78;;
44973;SDS011;60981;50.720;11.342;2022-11-23T05:13:03;6.57;;;3.53;;
44973;SDS011;60981;50.720;11.342;2022-11-23T05:14:05;7.13;;;3.67;;
44973;SDS011;60981;50.720;11.342;2022-11-23T05:15:07;9.25;;;3.10;;
44973;SDS011;60981;50.720;11.342;2022-11-23T05:16:09;6.45;;;3.00;;
44973;SDS011;60981;50.720;11.342;2022-11-23T05:17:11;8.02;;;3.65;;
44973;SDS011;60981;50.720;11.342;2022-11-23T05:18:13;8.35;;;3.58;;
44973;SDS011;60981;50.720;11.342;2022-11-23T05:19:15;7.22;;;3.55;;
44973;SDS011;60981;50.720;11.342;2022-11-23T08:39:02;8.88;;;3.55;;
44973;SDS011;60981;50.720;11.342;2022-11-23T08:40:56;7.18;;;3.90;;
